Skip Navigation Links
NOAA logo - Click to go to the NOAA homepage
NOAA's National Weather Service
Alaska Aviation Weather Unit
  NWS logo - Click to go to the NWS homepage
Left Navbar Graphic     01 AKDT = 09 GMT

   
NOAA is celebrating 200 years of science, service, and stewardship. Visit the NOAA 200th celebration Web site to learn more.
USA.gov is the U.S. Government's official Web portal to all Federal, state and local government Web resources and services.
Facebook
NWS on Facebook

Important Change Regarding the AAWU Web Presence

 

Over the last several months, the AAWU has been working to navigate its webpages to a nationally supported server. Security, as well as other needs, have necessitated the change.  We have been given an extension for the site changeover while we diligently work at addressing feedback received. As of July 14, 2017, aawu.arh.noaa.gov will be discontinued. The new AAWU web address is weather.gov/aawu. It is now live and will run in-parallel with the old site until it is discontinued on July 14, 2017. Please continue to send any feedback or questions regarding the new webpages to nws.ar.aawu.webauthors@noaa.gov.  Thank you for your patience during this time of transition.
AAWU Home :: Display TAF Add Bookmark
METAR PAHY 190356Z AUTO 29003KT 10SM SCT033 BKN065 14/09 A3008 RMK
 AO2 SLP184 T01390094 $=

METAR PAHY 190456Z AUTO 09003KT 10SM FEW065 12/10 A3009 RMK AO2 SLP187
     T01220100 $=

METAR PAHY 190556Z AUTO 12004KT 10SM FEW020 BKN030 11/10 A3010 RMK
 AO2 SLP191 P0001 60002 T01110100 10156 20111 52011 $=

PAHY 190611Z AUTO 10003KT 10SM FEW022 BKN028 11/10 A3011 RMK AO2
     $=

SPECI PAHY 190630Z AUTO 00000KT 10SM FEW023 BKN032 12/10 A3011 RMK AO2
     $=

METAR PAHY 190656Z AUTO 00000KT 10SM BKN022 OVC032 11/10 A3011 RMK
 AO2 SLP194 T01110100 $=

SPECI PAHY 190714Z AUTO 14005KT 10SM SCT020 SCT030 BKN050 11/10
 A3011 RMK AO2 $=

METAR PAHY 190756Z AUTO 12004KT 10SM BKN031 BKN039 11/10 A3012 RMK AO2
     SLP196 T01060100 401560106 $=

METAR PAHY 190856Z AUTO 13003KT 10SM BKN065 11/09 A3012 RMK AO2 SLP197
     T01060094 51006 $=


NOAA's National Weather Service
Alaska Aviation Weather Unit
6930 Sand Lake Road
Anchorage, AK 99502-1845
Disclaimer
Credits
Glossary
Privacy Policy
About Us
Career Opportunities
Contact AAWU Internet Services Site last modified: April, 17th 2012